createdAt,value
2018-03-11T00:00:23.787Z,90.71
2018-03-11T00:02:54.639Z,90.55
2018-03-11T00:05:25.447Z,90.64
2018-03-11T00:07:56.339Z,90.86
2018-03-11T00:10:27.199Z,90.50
2018-03-11T00:12:58.074Z,90.60
2018-03-11T00:15:28.926Z,90.64
2018-03-11T00:17:59.782Z,91.02
2018-03-11T00:20:30.629Z,91.11
2018-03-11T00:23:01.484Z,91.28
2018-03-11T00:25:32.349Z,91.06
2018-03-11T00:28:03.187Z,91.39
2018-03-11T00:30:34.011Z,91.55
2018-03-11T00:33:04.851Z,91.67
2018-03-11T00:35:35.693Z,92.12
2018-03-11T00:38:06.617Z,92.39
2018-03-11T00:40:37.446Z,92.55
2018-03-11T00:43:08.282Z,92.44
2018-03-11T00:45:39.126Z,92.59
2018-03-11T00:48:09.980Z,92.75
2018-03-11T00:50:40.807Z,92.78
2018-03-11T00:53:11.672Z,92.76
2018-03-11T00:55:42.478Z,92.81
2018-03-11T00:58:13.296Z,92.98
2018-03-11T01:00:44.124Z,93.01
2018-03-11T01:03:14.970Z,93.12
2018-03-11T01:05:45.769Z,93.18
2018-03-11T01:08:16.600Z,93.26
2018-03-11T01:10:47.442Z,93.27
2018-03-11T01:13:18.288Z,93.32
2018-03-11T01:15:49.127Z,93.45
2018-03-11T01:18:19.938Z,93.40
2018-03-11T01:20:50.749Z,93.54
2018-03-11T01:23:21.633Z,93.52
2018-03-11T01:25:52.452Z,93.54
2018-03-11T01:28:23.308Z,93.76
2018-03-11T01:30:54.130Z,93.72
2018-03-11T01:33:24.965Z,93.54
2018-03-11T01:35:55.763Z,93.67
2018-03-11T01:38:26.595Z,93.73
2018-03-11T01:40:57.408Z,93.93
2018-03-11T01:43:28.239Z,93.90
2018-03-11T01:45:59.093Z,93.94
2018-03-11T01:48:29.954Z,94.00
2018-03-11T01:51:00.787Z,93.86
2018-03-11T01:53:31.653Z,93.70
2018-03-11T01:56:02.490Z,93.55
2018-03-11T01:58:33.286Z,93.18
2018-03-11T02:01:04.097Z,93.03
2018-03-11T02:03:34.945Z,92.87
2018-03-11T02:06:05.778Z,92.67
2018-03-11T02:08:36.730Z,92.63
2018-03-11T02:11:07.544Z,92.77
2018-03-11T02:13:38.389Z,92.87
2018-03-11T02:16:09.217Z,92.74
2018-03-11T02:18:40.066Z,92.50
2018-03-11T02:21:12.927Z,92.43
2018-03-11T02:23:43.777Z,92.34
2018-03-11T02:26:14.609Z,92.33
2018-03-11T02:28:45.481Z,92.44
2018-03-11T02:31:16.420Z,92.69
2018-03-11T02:33:47.234Z,92.34
2018-03-11T02:36:18.049Z,92.17
2018-03-11T02:38:48.867Z,92.46
2018-03-11T02:41:19.724Z,92.08
2018-03-11T02:43:54.435Z,92.11
2018-03-11T02:46:25.296Z,92.09
2018-03-11T02:48:56.165Z,91.90
2018-03-11T02:51:27.024Z,91.83
2018-03-11T02:53:57.883Z,92.15
2018-03-11T02:56:28.671Z,91.73
2018-03-11T02:58:59.549Z,91.92
2018-03-11T03:01:30.389Z,91.76
2018-03-11T03:04:01.237Z,92.02
2018-03-11T03:06:32.057Z,92.30
2018-03-11T03:09:02.942Z,92.51
2018-03-11T03:11:33.733Z,92.69
2018-03-11T03:14:04.573Z,93.17
2018-03-11T03:16:35.361Z,93.47
2018-03-11T03:19:06.242Z,93.73
2018-03-11T03:21:37.057Z,93.77
2018-03-11T03:24:07.936Z,94.01
2018-03-11T03:26:38.764Z,94.36
2018-03-11T03:29:09.612Z,94.67
2018-03-11T03:31:40.525Z,95.05
2018-03-11T03:34:11.380Z,95.27
2018-03-11T03:36:42.227Z,95.39
2018-03-11T03:39:13.058Z,95.50
2018-03-11T03:41:43.896Z,95.49
2018-03-11T03:44:14.786Z,95.62
2018-03-11T03:46:45.616Z,95.64
2018-03-11T03:49:16.431Z,95.66
2018-03-11T03:51:48.340Z,95.61
2018-03-11T03:54:19.158Z,95.52
2018-03-11T03:56:49.956Z,95.59
2018-03-11T03:59:20.792Z,95.25
2018-03-11T04:01:51.587Z,94.86
2018-03-11T04:04:22.409Z,94.89
2018-03-11T04:06:53.240Z,94.68
2018-03-11T04:09:24.052Z,94.43
2018-03-11T04:11:54.856Z,94.22
2018-03-11T04:14:25.708Z,94.28
2018-03-11T04:16:56.525Z,94.16
2018-03-11T04:19:27.425Z,94.23
2018-03-11T04:21:58.287Z,94.23
2018-03-11T04:24:29.129Z,94.35
2018-03-11T04:26:59.991Z,94.59
2018-03-11T04:29:30.868Z,94.71
2018-03-11T04:32:01.739Z,94.76
2018-03-11T04:34:32.568Z,94.84
2018-03-11T04:37:03.409Z,94.82
2018-03-11T04:39:34.263Z,94.74
2018-03-11T04:42:05.084Z,94.46
2018-03-11T04:44:35.914Z,94.45
2018-03-11T04:47:06.767Z,94.57
2018-03-11T04:49:37.645Z,94.83
2018-03-11T04:52:08.474Z,94.85
2018-03-11T04:54:39.297Z,94.84
2018-03-11T04:57:10.107Z,94.58
2018-03-11T04:59:40.997Z,94.58
2018-03-11T05:02:11.878Z,94.61
2018-03-11T05:04:42.718Z,94.65
2018-03-11T05:07:13.554Z,94.78
2018-03-11T05:09:44.406Z,95.19
2018-03-11T05:12:15.234Z,95.40
2018-03-11T05:14:46.067Z,95.54
2018-03-11T05:17:16.901Z,95.72
2018-03-11T05:19:47.741Z,95.93
2018-03-11T05:22:18.580Z,96.03
2018-03-11T05:24:49.430Z,96.12
2018-03-11T05:27:20.278Z,96.19
2018-03-11T05:29:51.133Z,96.13
2018-03-11T05:32:21.943Z,96.18
2018-03-11T05:34:52.780Z,95.93
2018-03-11T05:37:23.618Z,95.74
2018-03-11T05:39:54.458Z,95.57
2018-03-11T05:42:25.274Z,95.48
2018-03-11T05:44:56.220Z,95.41
2018-03-11T05:47:27.058Z,95.45
2018-03-11T05:49:57.898Z,95.56
2018-03-11T05:52:28.714Z,95.74
2018-03-11T05:54:59.598Z,95.79
2018-03-11T05:57:30.437Z,95.74
2018-03-11T06:00:01.330Z,95.12
2018-03-11T06:02:32.169Z,94.66
2018-03-11T06:05:03.009Z,94.53
2018-03-11T06:07:35.906Z,94.34
2018-03-11T06:10:06.873Z,94.14
2018-03-11T06:12:37.678Z,94.04
2018-03-11T06:15:08.493Z,94.11
2018-03-11T06:17:39.339Z,93.84
2018-03-11T06:20:10.212Z,93.27
2018-03-11T06:22:41.618Z,92.96
2018-03-11T06:25:12.451Z,93.07
2018-03-11T06:27:43.297Z,92.95
2018-03-11T06:30:14.149Z,92.83
2018-03-11T06:32:44.970Z,93.08
2018-03-11T06:35:15.799Z,92.92
2018-03-11T06:37:46.638Z,93.02
2018-03-11T06:40:17.463Z,92.87
2018-03-11T06:42:48.319Z,92.58
2018-03-11T06:45:19.139Z,92.14
2018-03-11T06:47:49.938Z,91.99
2018-03-11T06:50:20.805Z,91.93
2018-03-11T06:52:51.662Z,91.65
2018-03-11T06:55:22.506Z,91.26
2018-03-11T06:57:53.317Z,90.90
2018-03-11T07:00:24.159Z,90.18
2018-03-11T07:02:54.987Z,89.55
2018-03-11T07:05:25.821Z,89.72
2018-03-11T07:07:56.618Z,89.38
2018-03-11T07:10:27.530Z,88.58
2018-03-11T07:12:58.370Z,87.77
2018-03-11T07:15:29.222Z,87.72
2018-03-11T07:18:00.075Z,87.82
2018-03-11T07:20:30.941Z,87.80
2018-03-11T07:23:01.759Z,87.37
2018-03-11T07:25:32.584Z,85.73
2018-03-11T07:28:03.413Z,84.94
2018-03-11T07:30:34.226Z,84.27
2018-03-11T07:33:05.076Z,82.27
2018-03-11T07:35:43.618Z,76.70
2018-03-11T07:38:14.439Z,74.56
2018-03-11T07:40:45.292Z,71.74
2018-03-11T07:43:16.141Z,69.21
2018-03-11T07:45:46.992Z,69.60
2018-03-11T07:48:17.796Z,66.34
2018-03-11T07:50:48.628Z,67.36
2018-03-11T07:53:19.483Z,66.84
2018-03-11T07:55:50.321Z,67.51
2018-03-11T07:58:21.168Z,68.20
2018-03-11T08:00:53.232Z,68.72
2018-03-11T08:03:24.123Z,68.92
2018-03-11T08:05:55.005Z,69.17
2018-03-11T08:08:25.850Z,70.21
2018-03-11T08:10:56.686Z,70.08
2018-03-11T08:13:28.514Z,68.05
2018-03-11T08:16:00.408Z,68.39
2018-03-11T08:18:31.348Z,69.10
2018-03-11T08:21:02.186Z,70.66
2018-03-11T08:23:33.120Z,70.06
2018-03-11T08:26:03.988Z,70.49
2018-03-11T08:28:35.914Z,71.39
2018-03-11T08:31:06.736Z,69.61
2018-03-11T08:33:37.571Z,69.79
2018-03-11T08:36:08.428Z,69.67
2018-03-11T08:38:39.321Z,69.71
2018-03-11T08:41:10.214Z,68.41
2018-03-11T08:43:41.075Z,66.88
2018-03-11T08:46:11.935Z,65.98
2018-03-11T08:48:42.732Z,66.33
2018-03-11T08:51:13.609Z,64.38
2018-03-11T08:53:44.459Z,66.17
2018-03-11T08:56:16.446Z,64.24
2018-03-11T08:58:47.286Z,64.30
2018-03-11T09:01:18.124Z,63.94
2018-03-11T09:03:48.967Z,65.10
2018-03-11T09:06:19.849Z,66.98
2018-03-11T09:08:50.688Z,64.34
2018-03-11T09:11:21.513Z,64.18
2018-03-11T09:13:52.373Z,61.32
2018-03-11T09:16:23.241Z,61.52
2018-03-11T09:18:54.077Z,61.21
2018-03-11T09:21:24.915Z,62.60
2018-03-11T09:23:55.755Z,60.99
2018-03-11T09:26:26.615Z,61.41
2018-03-11T09:28:57.510Z,63.77
2018-03-11T09:31:28.354Z,60.71
2018-03-11T09:33:59.224Z,61.79
2018-03-11T09:36:32.139Z,60.59
2018-03-11T09:39:02.973Z,60.06
2018-03-11T09:41:33.907Z,60.30
2018-03-11T09:44:04.774Z,57.79
2018-03-11T09:46:35.615Z,58.38
2018-03-11T09:49:10.460Z,59.45
2018-03-11T09:51:41.275Z,55.97
2018-03-11T09:54:12.055Z,55.02
2018-03-11T09:56:42.869Z,59.26
2018-03-11T09:59:13.660Z,60.10
2018-03-11T10:01:44.497Z,56.26
2018-03-11T10:04:15.380Z,56.64
2018-03-11T10:06:46.193Z,56.50
2018-03-11T10:09:17.091Z,56.27
2018-03-11T10:11:47.891Z,57.44
2018-03-11T10:14:18.825Z,56.27
2018-03-11T10:16:49.667Z,58.24
2018-03-11T10:19:23.148Z,56.35
2018-03-11T10:21:53.988Z,56.97
2018-03-11T10:24:24.921Z,57.82
2018-03-11T10:26:55.785Z,57.69
2018-03-11T10:29:26.674Z,58.89
2018-03-11T10:31:57.549Z,56.81
2018-03-11T10:34:28.495Z,57.31
2018-03-11T10:36:59.325Z,56.32
2018-03-11T10:39:30.157Z,57.52
2018-03-11T10:42:00.987Z,56.06
2018-03-11T10:44:31.850Z,56.18
2018-03-11T10:47:02.735Z,56.13
2018-03-11T10:49:33.590Z,56.68
2018-03-11T10:52:04.536Z,57.52
2018-03-11T10:54:35.389Z,58.99
2018-03-11T10:57:06.157Z,59.28
2018-03-11T10:59:37.044Z,58.50
2018-03-11T11:02:14.072Z,56.92
2018-03-11T11:04:51.098Z,56.72
2018-03-11T11:07:21.950Z,58.35
2018-03-11T11:09:52.877Z,57.10
2018-03-11T11:12:23.817Z,58.20
2018-03-11T11:14:54.674Z,58.41
2018-03-11T11:17:25.512Z,59.85
2018-03-11T11:19:57.472Z,58.21
2018-03-11T11:22:28.275Z,58.18
2018-03-11T11:24:59.140Z,55.69
2018-03-11T11:27:30.120Z,57.93
2018-03-11T11:30:00.994Z,57.08
2018-03-11T11:32:31.846Z,57.23
2018-03-11T11:35:02.736Z,57.44
2018-03-11T11:37:33.578Z,58.22
2018-03-11T11:40:04.554Z,56.58
2018-03-11T11:42:35.406Z,56.54
2018-03-11T11:45:06.241Z,58.10
2018-03-11T11:47:37.067Z,58.57
2018-03-11T11:50:08.069Z,57.02
2018-03-11T11:52:38.886Z,58.89
2018-03-11T11:55:09.816Z,58.44
2018-03-11T11:57:40.669Z,59.12
2018-03-11T12:00:11.503Z,58.23
2018-03-11T12:02:42.347Z,57.31
2018-03-11T12:05:13.212Z,58.42
2018-03-11T12:07:44.066Z,55.94
2018-03-11T12:10:14.956Z,58.10
2018-03-11T12:12:45.806Z,56.08
2018-03-11T12:15:16.632Z,57.06
2018-03-11T12:17:47.478Z,54.65
2018-03-11T12:20:18.310Z,54.37
2018-03-11T12:22:49.222Z,53.62
2018-03-11T12:25:20.065Z,53.48
2018-03-11T12:27:50.934Z,54.26
2018-03-11T12:30:21.782Z,54.24
2018-03-11T12:32:52.618Z,52.29
2018-03-11T12:35:23.468Z,52.81
2018-03-11T12:37:54.393Z,52.50
2018-03-11T12:40:25.266Z,54.88
2018-03-11T12:42:56.135Z,54.00
2018-03-11T12:45:27.034Z,55.46
2018-03-11T12:47:57.871Z,53.48
2018-03-11T12:50:28.777Z,54.58
2018-03-11T12:52:59.649Z,53.67
2018-03-11T12:55:30.480Z,55.35
2018-03-11T12:58:01.347Z,54.72
2018-03-11T13:00:32.182Z,56.58
2018-03-11T13:03:03.090Z,55.15
2018-03-11T13:05:34.031Z,54.02
2018-03-11T13:08:04.908Z,55.67
2018-03-11T13:10:35.813Z,53.32
2018-03-11T13:13:06.715Z,55.10
2018-03-11T13:15:37.799Z,54.66
2018-03-11T13:18:08.649Z,53.09
2018-03-11T13:20:51.783Z,51.08
2018-03-11T13:23:22.615Z,50.02
2018-03-11T13:25:53.462Z,47.99
2018-03-11T13:28:36.774Z,49.23
2018-03-11T13:31:07.613Z,49.23
2018-03-11T13:33:51.084Z,49.72
2018-03-11T13:36:22.022Z,50.15
2018-03-11T13:39:05.326Z,49.08
2018-03-11T13:41:36.196Z,46.82
2018-03-11T13:44:07.085Z,46.23
2018-03-11T13:46:50.150Z,47.19
2018-03-11T13:49:20.959Z,44.97
2018-03-11T13:52:04.094Z,43.65
2018-03-11T13:54:34.946Z,43.05
2018-03-11T14:00:12.972Z,42.28
2018-03-11T14:02:43.803Z,43.38
2018-03-11T14:05:14.579Z,45.78
2018-03-11T14:07:45.467Z,46.39
2018-03-11T14:10:16.256Z,49.72
2018-03-11T14:12:49.208Z,49.82
2018-03-11T14:15:20.142Z,51.40
2018-03-11T14:17:51.000Z,51.59
2018-03-11T14:20:21.834Z,50.67
2018-03-11T14:22:52.669Z,52.21
2018-03-11T14:25:23.487Z,51.48
2018-03-11T14:27:54.330Z,52.39
2018-03-11T14:30:25.163Z,54.15
2018-03-11T14:32:56.057Z,52.62
2018-03-11T14:35:26.889Z,53.26
2018-03-11T14:37:57.732Z,52.78
2018-03-11T14:40:28.563Z,52.39
2018-03-11T14:42:59.397Z,53.20
2018-03-11T14:45:30.217Z,53.75
2018-03-11T14:48:01.182Z,53.13
2018-03-11T14:50:32.016Z,53.63
2018-03-11T14:53:02.868Z,55.23
2018-03-11T14:55:33.772Z,55.63
2018-03-11T14:58:04.616Z,53.44
2018-03-11T15:00:35.457Z,53.90
2018-03-11T15:03:06.296Z,53.56
2018-03-11T15:05:38.189Z,53.66
2018-03-11T15:08:08.999Z,53.43
2018-03-11T15:10:39.796Z,54.21
2018-03-11T15:13:10.706Z,54.22
2018-03-11T15:15:41.540Z,53.89
2018-03-11T15:18:12.459Z,54.35
2018-03-11T15:20:43.273Z,54.53
2018-03-11T15:23:14.166Z,56.99
2018-03-11T15:25:44.992Z,55.76
2018-03-11T15:28:15.924Z,55.30
2018-03-11T15:30:46.809Z,55.32
2018-03-11T15:33:17.706Z,55.49
2018-03-11T15:35:48.607Z,56.40
2018-03-11T15:38:19.442Z,57.21
2018-03-11T15:40:50.287Z,55.86
2018-03-11T15:43:21.131Z,55.40
2018-03-11T15:45:52.028Z,56.61
2018-03-11T15:48:22.893Z,56.72
2018-03-11T15:50:53.714Z,56.76
2018-03-11T15:53:24.543Z,56.87
2018-03-11T15:56:00.530Z,58.89
2018-03-11T15:58:31.344Z,56.79
2018-03-11T16:01:02.195Z,57.74
2018-03-11T16:03:33.067Z,57.95
2018-03-11T16:06:03.910Z,58.48
2018-03-11T16:08:34.751Z,59.26
2018-03-11T16:11:05.547Z,59.46
2018-03-11T16:13:36.381Z,58.34
2018-03-11T16:16:07.212Z,59.08
2018-03-11T16:18:38.046Z,58.63
2018-03-11T16:21:08.876Z,59.02
2018-03-11T16:23:39.763Z,59.44
2018-03-11T16:26:10.621Z,58.50
2018-03-11T16:28:41.481Z,60.69
2018-03-11T16:31:12.319Z,60.96
2018-03-11T16:33:43.162Z,61.04
2018-03-11T16:36:13.986Z,60.20
2018-03-11T16:38:44.822Z,60.38
2018-03-11T16:41:15.649Z,61.35
2018-03-11T16:43:46.499Z,62.08
2018-03-11T16:46:18.398Z,62.22
2018-03-11T16:48:53.315Z,62.68
2018-03-11T16:51:24.146Z,62.46
2018-03-11T16:53:55.025Z,63.84
2018-03-11T16:56:25.835Z,64.16
2018-03-11T16:58:56.697Z,64.00
2018-03-11T17:01:27.528Z,65.73
2018-03-11T17:03:58.363Z,65.58
2018-03-11T17:06:29.231Z,65.93
2018-03-11T17:09:00.129Z,67.14
2018-03-11T17:11:30.965Z,67.65
2018-03-11T17:14:01.795Z,67.84
2018-03-11T17:16:32.618Z,68.62
2018-03-11T17:19:03.430Z,71.34
2018-03-11T17:21:34.336Z,69.82
2018-03-11T17:24:05.210Z,69.39
2018-03-11T17:26:36.041Z,72.14
2018-03-11T17:29:06.870Z,72.85
2018-03-11T17:31:37.681Z,72.77
2018-03-11T17:34:08.538Z,72.58
2018-03-11T17:36:39.386Z,71.98
2018-03-11T17:39:10.223Z,72.62
2018-03-11T17:41:41.036Z,73.54
2018-03-11T17:44:11.874Z,73.54
2018-03-11T17:46:42.685Z,74.56
2018-03-11T17:49:13.521Z,74.65
2018-03-11T17:51:44.366Z,74.98
2018-03-11T17:54:15.239Z,74.68
2018-03-11T17:56:46.129Z,74.91
2018-03-11T17:59:16.925Z,74.64
2018-03-11T18:01:47.785Z,75.04
2018-03-11T18:04:18.691Z,75.82
2018-03-11T18:06:49.547Z,77.13
2018-03-11T18:09:20.366Z,76.75
2018-03-11T18:11:51.228Z,76.29
2018-03-11T18:14:22.105Z,75.59
2018-03-11T18:16:53.025Z,75.48
2018-03-11T18:19:23.934Z,75.94
2018-03-11T18:21:54.733Z,75.93
2018-03-11T18:24:25.590Z,76.50
2018-03-11T18:26:56.414Z,76.32
2018-03-11T18:29:27.311Z,76.29
2018-03-11T18:31:58.151Z,76.99
2018-03-11T18:34:29.025Z,77.24
2018-03-11T18:36:59.865Z,77.23
2018-03-11T18:39:30.715Z,77.25
2018-03-11T18:42:01.551Z,77.79
2018-03-11T18:44:34.455Z,77.69
2018-03-11T18:47:05.261Z,77.67
2018-03-11T18:49:36.067Z,77.56
2018-03-11T18:52:07.014Z,77.33
2018-03-11T18:54:37.837Z,77.40
2018-03-11T18:57:08.784Z,77.97
2018-03-11T18:59:39.604Z,78.34
2018-03-11T19:02:10.405Z,78.37
2018-03-11T19:04:41.231Z,78.57
2018-03-11T19:07:12.057Z,78.80
2018-03-11T19:09:42.932Z,79.31
2018-03-11T19:12:13.934Z,79.00
2018-03-11T19:14:44.775Z,79.32
2018-03-11T19:17:15.565Z,78.93
2018-03-11T19:19:46.498Z,79.02
2018-03-11T19:22:17.334Z,78.75
2018-03-11T19:24:48.216Z,78.76
2018-03-11T19:27:19.054Z,78.95
2018-03-11T19:29:49.896Z,78.85
2018-03-11T19:32:20.682Z,78.62
2018-03-11T19:34:51.521Z,78.40
2018-03-11T19:37:22.415Z,78.10
2018-03-11T19:39:53.217Z,78.19
2018-03-11T19:42:24.073Z,78.59
2018-03-11T19:44:54.918Z,78.46
2018-03-11T19:47:25.752Z,78.53
2018-03-11T19:49:56.568Z,78.94
2018-03-11T19:52:27.435Z,80.30
2018-03-11T19:54:58.274Z,79.75
2018-03-11T19:57:29.105Z,79.92
2018-03-11T20:00:00.068Z,80.02
2018-03-11T20:02:32.002Z,79.50
2018-03-11T20:05:02.963Z,79.40
2018-03-11T20:07:33.884Z,79.90
2018-03-11T20:10:04.810Z,80.05
2018-03-11T20:12:35.660Z,79.97
2018-03-11T20:15:06.644Z,80.21
2018-03-11T20:17:37.504Z,80.43
2018-03-11T20:20:08.459Z,80.78
2018-03-11T20:22:39.289Z,80.81
2018-03-11T20:25:10.119Z,80.87
2018-03-11T20:27:41.027Z,81.01
2018-03-11T20:30:11.819Z,81.17
2018-03-11T20:32:42.652Z,81.59
2018-03-11T20:35:13.538Z,81.81
2018-03-11T20:37:44.386Z,82.12
2018-03-11T20:40:15.281Z,82.63
2018-03-11T20:42:47.243Z,82.23
2018-03-11T20:45:18.086Z,82.02
2018-03-11T20:47:48.898Z,82.11
2018-03-11T20:50:19.745Z,81.94
2018-03-11T20:52:50.560Z,81.81
2018-03-11T20:55:25.126Z,82.38
2018-03-11T20:57:56.030Z,82.70
2018-03-11T21:00:26.868Z,83.16
2018-03-11T21:02:57.729Z,83.13
2018-03-11T21:05:28.601Z,82.96
2018-03-11T21:07:59.471Z,82.93
2018-03-11T21:10:30.319Z,82.64
2018-03-11T21:13:01.259Z,82.62
2018-03-11T21:15:32.115Z,82.63
2018-03-11T21:18:03.023Z,82.54
2018-03-11T21:20:33.878Z,82.76
2018-03-11T21:23:05.128Z,82.93
2018-03-11T21:25:36.029Z,82.62
2018-03-11T21:28:06.993Z,83.03
2018-03-11T21:30:37.840Z,83.31
2018-03-11T21:33:08.713Z,83.10
2018-03-11T21:35:39.564Z,83.15
2018-03-11T21:38:10.455Z,83.24
2018-03-11T21:40:41.331Z,83.86
2018-03-11T21:43:12.252Z,84.10
2018-03-11T21:45:43.142Z,84.32
2018-03-11T21:48:14.077Z,84.35
2018-03-11T21:50:44.934Z,84.16
2018-03-11T21:53:15.783Z,83.96
2018-03-11T21:55:46.644Z,84.00
2018-03-11T21:58:17.615Z,83.73
2018-03-11T22:00:48.482Z,83.85
2018-03-11T22:03:19.343Z,83.71
2018-03-11T22:05:50.265Z,84.03
2018-03-11T22:08:21.159Z,83.91
2018-03-11T22:10:52.016Z,84.15
2018-03-11T22:13:22.917Z,84.25
2018-03-11T22:15:53.799Z,84.49
2018-03-11T22:18:24.665Z,84.79
2018-03-11T22:20:55.531Z,84.86
2018-03-11T22:23:26.404Z,84.79
2018-03-11T22:26:00.466Z,84.70
2018-03-11T22:28:31.378Z,84.47
2018-03-11T22:31:02.225Z,84.44
2018-03-11T22:33:33.053Z,84.63
2018-03-11T22:36:03.991Z,84.96
2018-03-11T22:38:34.825Z,84.95
2018-03-11T22:41:05.666Z,84.91
2018-03-11T22:43:36.596Z,84.95
2018-03-11T22:46:09.565Z,85.07
2018-03-11T22:48:40.418Z,85.17
2018-03-11T22:51:11.264Z,85.19
2018-03-11T22:53:42.158Z,85.34
2018-03-11T22:56:13.127Z,85.40
2018-03-11T22:58:45.978Z,85.48
2018-03-11T23:01:16.920Z,85.64
2018-03-11T23:03:47.798Z,85.76
2018-03-11T23:06:18.696Z,85.91
2018-03-11T23:08:49.668Z,86.13
2018-03-11T23:11:20.521Z,85.98
2018-03-11T23:13:51.558Z,86.05
2018-03-11T23:16:22.394Z,85.92
2018-03-11T23:19:05.696Z,86.02
2018-03-11T23:21:40.250Z,85.75
2018-03-11T23:24:11.187Z,85.62
2018-03-11T23:26:42.128Z,85.20
2018-03-11T23:29:13.047Z,85.14
2018-03-11T23:31:43.931Z,84.94
2018-03-11T23:34:15.441Z,84.96
2018-03-11T23:36:46.281Z,84.96
2018-03-11T23:39:17.176Z,84.96
2018-03-11T23:41:48.061Z,84.83
2018-03-11T23:44:18.898Z,85.32
2018-03-11T23:46:49.788Z,85.14
2018-03-11T23:49:20.671Z,84.69
2018-03-11T23:51:51.557Z,84.73
2018-03-11T23:54:22.456Z,84.76
2018-03-11T23:56:53.342Z,84.51
2018-03-11T23:59:24.249Z,84.31
